N12KBM KSNA-KLAX
Flight info
| Callsign | N12KBM |
|---|---|
| Flight time | 0h 21m |
| Altitude | VFR |
| Route | VFR N |
| Aircraft | P28A/L-DOV/C |
Departure
| Time | 2026-05-04 00:34 |
|---|---|
| Airport | John Wayne Orange County International Airport (KSNA) |
Arrival
| Time | 2026-05-04 00:55 |
|---|---|
| Airport | Los Angeles International Airport (KLAX) |
| Time | Latitude | Longitude | Altitude | Speed | Heading |
|---|---|---|---|---|---|
| 2026-05-04 00:26 | 33.67375 | -117.86579 | 55 ft | 0 kts | 301° |
| 2026-05-04 00:29 | 33.67383 | -117.86594 | 55 ft | 10 kts | 311° |
| 2026-05-04 00:29 | 33.67401 | -117.86647 | 58 ft | 10 kts | 227° |
| 2026-05-04 00:29 | 33.67370 | -117.86708 | 60 ft | 8 kts | 294° |
| 2026-05-04 00:30 | 33.67454 | -117.86684 | 60 ft | 20 kts | 29° |
| 2026-05-04 00:30 | 33.67582 | -117.86606 | 57 ft | 20 kts | 31° |
| 2026-05-04 00:30 | 33.67602 | -117.86592 | 56 ft | 19 kts | 29° |
| 2026-05-04 00:30 | 33.67612 | -117.86586 | 57 ft | 19 kts | 26° |
| 2026-05-04 00:31 | 33.67727 | -117.86510 | 53 ft | 19 kts | 27° |
| 2026-05-04 00:31 | 33.67847 | -117.86435 | 50 ft | 21 kts | 26° |
| 2026-05-04 00:31 | 33.67987 | -117.86347 | 47 ft | 23 kts | 21° |
| 2026-05-04 00:31 | 33.68069 | -117.86350 | 46 ft | 12 kts | 158° |
| 2026-05-04 00:32 | 33.68062 | -117.86321 | 46 ft | 0 kts | 312° |
| 2026-05-04 00:33 | 33.68043 | -117.86590 | 45 ft | 46 kts | 208° |
| 2026-05-04 00:33 | 33.67615 | -117.86873 | 168 ft | 81 kts | 210° |
| 2026-05-04 00:34 | 33.67109 | -117.87262 | 403 ft | 94 kts | 214° |
| 2026-05-04 00:34 | 33.66637 | -117.87739 | 833 ft | 84 kts | 232° |
| 2026-05-04 00:34 | 33.66402 | -117.88404 | 1116 ft | 91 kts | 250° |
| 2026-05-04 00:34 | 33.66251 | -117.89126 | 1484 ft | 83 kts | 271° |
| 2026-05-04 00:35 | 33.66295 | -117.89833 | 1798 ft | 88 kts | 271° |
| 2026-05-04 00:35 | 33.66294 | -117.90591 | 2081 ft | 95 kts | 269° |
| 2026-05-04 00:35 | 33.66280 | -117.91386 | 2410 ft | 93 kts | 263° |
| 2026-05-04 00:35 | 33.66170 | -117.92178 | 2564 ft | 113 kts | 263° |
| 2026-05-04 00:36 | 33.65997 | -117.93303 | 2261 ft | 149 kts | 252° |
| 2026-05-04 00:36 | 33.65634 | -117.94449 | 2350 ft | 145 kts | 250° |
| 2026-05-04 00:36 | 33.65395 | -117.95632 | 2391 ft | 145 kts | 257° |
| 2026-05-04 00:36 | 33.65153 | -117.96814 | 2422 ft | 149 kts | 256° |
| 2026-05-04 00:37 | 33.64797 | -117.98027 | 2327 ft | 154 kts | 246° |
| 2026-05-04 00:37 | 33.64332 | -117.99144 | 2448 ft | 148 kts | 241° |
| 2026-05-04 00:37 | 33.63655 | -118.00100 | 2361 ft | 151 kts | 227° |
| 2026-05-04 00:37 | 33.62944 | -118.00992 | 2502 ft | 144 kts | 227° |
| 2026-05-04 00:38 | 33.62232 | -118.01788 | 2664 ft | 138 kts | 221° |
| 2026-05-04 00:38 | 33.61486 | -118.02574 | 2667 ft | 147 kts | 221° |
| 2026-05-04 00:38 | 33.60712 | -118.03357 | 2799 ft | 143 kts | 219° |
| 2026-05-04 00:38 | 33.59957 | -118.04095 | 2895 ft | 141 kts | 213° |
| 2026-05-04 00:39 | 33.59028 | -118.03778 | 2697 ft | 154 kts | 120° |
| 2026-05-04 00:39 | 33.59103 | -118.02652 | 3028 ft | 132 kts | 65° |
| 2026-05-04 00:39 | 33.59544 | -118.01665 | 3147 ft | 137 kts | 57° |
| 2026-05-04 00:39 | 33.60099 | -118.00695 | 3174 ft | 144 kts | 53° |
| 2026-05-04 00:40 | 33.60692 | -117.99737 | 3251 ft | 145 kts | 44° |
| 2026-05-04 00:40 | 33.61633 | -117.99333 | 3135 ft | 154 kts | 355° |
| 2026-05-04 00:40 | 33.62673 | -117.99624 | 3097 ft | 154 kts | 340° |
| 2026-05-04 00:40 | 33.63686 | -118.00085 | 3008 ft | 157 kts | 337° |
| 2026-05-04 00:41 | 33.64655 | -118.00607 | 3059 ft | 152 kts | 334° |
| 2026-05-04 00:41 | 33.65629 | -118.01198 | 2915 ft | 158 kts | 331° |
| 2026-05-04 00:41 | 33.66559 | -118.01771 | 3089 ft | 147 kts | 333° |
| 2026-05-04 00:41 | 33.67509 | -118.02360 | 2930 ft | 158 kts | 330° |
| 2026-05-04 00:42 | 33.68392 | -118.03106 | 3018 ft | 150 kts | 314° |
| 2026-05-04 00:42 | 33.69091 | -118.03979 | 3154 ft | 143 kts | 314° |
| 2026-05-04 00:42 | 33.69804 | -118.04825 | 3217 ft | 145 kts | 314° |
| 2026-05-04 00:42 | 33.70489 | -118.05662 | 3473 ft | 133 kts | 313° |
| 2026-05-04 00:43 | 33.71092 | -118.06454 | 3762 ft | 128 kts | 310° |
| 2026-05-04 00:43 | 33.71771 | -118.07356 | 3457 ft | 157 kts | 313° |
| 2026-05-04 00:43 | 33.72534 | -118.08273 | 3438 ft | 155 kts | 313° |
| 2026-05-04 00:43 | 33.73196 | -118.09205 | 3760 ft | 131 kts | 303° |
| 2026-05-04 00:44 | 33.73601 | -118.10106 | 4010 ft | 130 kts | 296° |
| 2026-05-04 00:44 | 33.74038 | -118.11121 | 4007 ft | 142 kts | 299° |
| 2026-05-04 00:44 | 33.74530 | -118.12184 | 4031 ft | 144 kts | 299° |
| 2026-05-04 00:44 | 33.75217 | -118.12993 | 4190 ft | 139 kts | 339° |
| 2026-05-04 00:45 | 33.76216 | -118.12962 | 4081 ft | 150 kts | 11° |
| 2026-05-04 00:45 | 33.77189 | -118.12741 | 4332 ft | 135 kts | 8° |
| 2026-05-04 00:45 | 33.77948 | -118.12588 | 4498 ft | 133 kts | 9° |
| 2026-05-04 00:46 | 33.78539 | -118.12452 | 4412 ft | 145 kts | 11° |
| 2026-05-04 00:46 | 33.79575 | -118.12159 | 4325 ft | 151 kts | 12° |
| 2026-05-04 00:46 | 33.80593 | -118.11880 | 4258 ft | 157 kts | 11° |
| 2026-05-04 00:46 | 33.81685 | -118.11593 | 4083 ft | 161 kts | 13° |
| 2026-05-04 00:47 | 33.82737 | -118.11213 | 4083 ft | 153 kts | 21° |
| 2026-05-04 00:47 | 33.83688 | -118.10671 | 4104 ft | 152 kts | 25° |
| 2026-05-04 00:47 | 33.84651 | -118.10103 | 4047 ft | 156 kts | 27° |
| 2026-05-04 00:47 | 33.85575 | -118.09634 | 4406 ft | 131 kts | 14° |
| 2026-05-04 00:48 | 33.86418 | -118.09443 | 4787 ft | 115 kts | 356° |
| 2026-05-04 00:48 | 33.87285 | -118.09551 | 4641 ft | 144 kts | 345° |
| 2026-05-04 00:48 | 33.88183 | -118.10214 | 4459 ft | 156 kts | 320° |
| 2026-05-04 00:48 | 33.88991 | -118.11060 | 4461 ft | 153 kts | 319° |
| 2026-05-04 00:49 | 33.89811 | -118.11900 | 4374 ft | 156 kts | 319° |
| 2026-05-04 00:49 | 33.90628 | -118.12680 | 4533 ft | 144 kts | 326° |
| 2026-05-04 00:49 | 33.91170 | -118.13090 | 4705 ft | 135 kts | 327° |
| 2026-05-04 00:49 | 33.92026 | -118.13692 | 4341 ft | 163 kts | 327° |
| 2026-05-04 00:50 | 33.93061 | -118.14525 | 3519 ft | 186 kts | 324° |
| 2026-05-04 00:50 | 33.94042 | -118.15470 | 3264 ft | 173 kts | 317° |
| 2026-05-04 00:50 | 33.94758 | -118.16554 | 3303 ft | 156 kts | 302° |
| 2026-05-04 00:50 | 33.95155 | -118.17685 | 3476 ft | 144 kts | 284° |
| 2026-05-04 00:51 | 33.95282 | -118.18888 | 3504 ft | 146 kts | 270° |
| 2026-05-04 00:51 | 33.95245 | -118.20117 | 3517 ft | 144 kts | 266° |
| 2026-05-04 00:51 | 33.95160 | -118.21336 | 3319 ft | 147 kts | 264° |
| 2026-05-04 00:51 | 33.95039 | -118.22569 | 3104 ft | 150 kts | 265° |
| 2026-05-04 00:52 | 33.94951 | -118.23834 | 2841 ft | 156 kts | 264° |
| 2026-05-04 00:52 | 33.94825 | -118.25133 | 2747 ft | 158 kts | 263° |
| 2026-05-04 00:52 | 33.94685 | -118.26397 | 2671 ft | 146 kts | 261° |
| 2026-05-04 00:52 | 33.94526 | -118.27577 | 2477 ft | 147 kts | 261° |
| 2026-05-04 00:53 | 33.94369 | -118.28799 | 2339 ft | 143 kts | 272° |
| 2026-05-04 00:53 | 33.94376 | -118.29981 | 2145 ft | 140 kts | 270° |
| 2026-05-04 00:53 | 33.94337 | -118.31114 | 2013 ft | 133 kts | 267° |
| 2026-05-04 00:53 | 33.94290 | -118.32233 | 1785 ft | 136 kts | 265° |
| 2026-05-04 00:54 | 33.94183 | -118.33386 | 1499 ft | 138 kts | 259° |
| 2026-05-04 00:54 | 33.94018 | -118.34601 | 975 ft | 163 kts | 264° |
| 2026-05-04 00:54 | 33.93976 | -118.35939 | 746 ft | 157 kts | 267° |
| 2026-05-04 00:54 | 33.93846 | -118.37248 | 430 ft | 146 kts | 261° |
| 2026-05-04 00:55 | 33.93727 | -118.38327 | 185 ft | 115 kts | 262° |
| 2026-05-04 00:55 | 33.93643 | -118.39173 | 129 ft | 89 kts | 263° |
| 2026-05-04 00:55 | 33.93571 | -118.39803 | 121 ft | 64 kts | 260° |
| 2026-05-04 00:55 | 33.93483 | -118.40187 | 119 ft | 15 kts | 200° |
| 2026-05-04 00:56 | 33.93438 | -118.40196 | 117 ft | 4 kts | 151° |
| 2026-05-04 00:56 | 33.93366 | -118.40166 | 118 ft | 12 kts | 165° |
| 2026-05-04 00:56 | 33.93335 | -118.40156 | 120 ft | 0 kts | 63° |
| 2026-05-04 00:56 | 33.93336 | -118.40154 | 120 ft | 2 kts | 74° |
| 2026-05-04 00:57 | 33.93339 | -118.40119 | 120 ft | 5 kts | 87° |
| 2026-05-04 00:57 | 33.93340 | -118.40096 | 120 ft | 0 kts | 84° |
| 2026-05-04 00:58 | 33.93361 | -118.40094 | 120 ft | 5 kts | 359° |
| 2026-05-04 00:58 | 33.93369 | -118.40094 | 120 ft | 0 kts | 352° |
| 2026-05-04 00:58 | 33.93373 | -118.40094 | 120 ft | 4 kts | 11° |
| 2026-05-04 00:59 | 33.93431 | -118.40039 | 120 ft | 12 kts | 79° |
| 2026-05-04 00:59 | 33.93439 | -118.39952 | 120 ft | 10 kts | 84° |
| 2026-05-04 00:59 | 33.93447 | -118.39875 | 120 ft | 9 kts | 82° |
| 2026-05-04 00:59 | 33.93456 | -118.39806 | 120 ft | 8 kts | 81° |
| 2026-05-04 01:00 | 33.93465 | -118.39745 | 118 ft | 7 kts | 79° |
| 2026-05-04 01:00 | 33.93474 | -118.39690 | 120 ft | 6 kts | 80° |
| 2026-05-04 01:00 | 33.93479 | -118.39584 | 119 ft | 22 kts | 83° |
| 2026-05-04 01:00 | 33.93497 | -118.39420 | 120 ft | 10 kts | 73° |
| 2026-05-04 01:01 | 33.93522 | -118.39375 | 120 ft | 5 kts | 27° |
| 2026-05-04 01:01 | 33.93533 | -118.39372 | 120 ft | 2 kts | 355° |
| 2026-05-04 01:01 | 33.93537 | -118.39373 | 120 ft | 0 kts | 359° |
| 2026-05-04 01:02 | 33.93558 | -118.39374 | 120 ft | 9 kts | 356° |
| 2026-05-04 01:02 | 33.93613 | -118.39449 | 120 ft | 20 kts | 264° |
| 2026-05-04 01:03 | 33.93567 | -118.39878 | 121 ft | 82 kts | 262° |
| 2026-05-04 01:03 | 33.93489 | -118.40665 | 329 ft | 101 kts | 264° |
| 2026-05-04 01:03 | 33.93426 | -118.41500 | 726 ft | 96 kts | 264° |
| 2026-05-04 01:03 | 33.93345 | -118.42318 | 1035 ft | 103 kts | 262° |
| 2026-05-04 01:04 | 33.93257 | -118.43227 | 1214 ft | 117 kts | 272° |
| 2026-05-04 01:04 | 33.93695 | -118.44079 | 1448 ft | 117 kts | 319° |
| 2026-05-04 01:04 | 33.94366 | -118.44572 | 1810 ft | 111 kts | 335° |
| 2026-05-04 01:04 | 33.95105 | -118.44942 | 2024 ft | 121 kts | 337° |
| 2026-05-04 01:05 | 33.95937 | -118.45335 | 2124 ft | 134 kts | 338° |
| 2026-05-04 01:05 | 33.96804 | -118.45745 | 2329 ft | 134 kts | 337° |
| 2026-05-04 01:05 | 33.97683 | -118.46178 | 2465 ft | 138 kts | 338° |
| 2026-05-04 01:05 | 33.98566 | -118.46594 | 2713 ft | 131 kts | 337° |
| 2026-05-04 01:06 | 33.99426 | -118.46986 | 2869 ft | 136 kts | 339° |
| 2026-05-04 01:06 | 34.00333 | -118.47309 | 3048 ft | 135 kts | 348° |
| 2026-05-04 01:06 | 34.01270 | -118.47471 | 3136 ft | 139 kts | 353° |
| 2026-05-04 01:06 | 34.02218 | -118.47588 | 3372 ft | 133 kts | 353° |
| 2026-05-04 01:07 | 34.03077 | -118.47661 | 3777 ft | 117 kts | 355° |
| 2026-05-04 01:07 | 34.03887 | -118.47666 | 4062 ft | 115 kts | 360° |
| 2026-05-04 01:07 | 34.04729 | -118.47603 | 4211 ft | 124 kts | 4° |
| 2026-05-04 01:07 | 34.05604 | -118.47488 | 4348 ft | 132 kts | 7° |
| 2026-05-04 01:08 | 34.06513 | -118.47319 | 4537 ft | 131 kts | 5° |
| 2026-05-04 01:08 | 34.07426 | -118.47387 | 4631 ft | 137 kts | 349° |
| 2026-05-04 01:08 | 34.08359 | -118.47677 | 4691 ft | 142 kts | 343° |
| 2026-05-04 01:08 | 34.09315 | -118.48071 | 4663 ft | 148 kts | 337° |
| 2026-05-04 01:09 | 34.10252 | -118.48614 | 4649 ft | 150 kts | 330° |
| 2026-05-04 01:09 | 34.11168 | -118.49258 | 4604 ft | 153 kts | 329° |
| 2026-05-04 01:09 | 34.12071 | -118.49911 | 4632 ft | 152 kts | 329° |
| 2026-05-04 01:09 | 34.13026 | -118.50479 | 4558 ft | 156 kts | 337° |
| 2026-05-04 01:10 | 34.14048 | -118.50938 | 4283 ft | 166 kts | 340° |
| 2026-05-04 01:10 | 34.15234 | -118.51407 | 3589 ft | 182 kts | 343° |
| 2026-05-04 01:10 | 34.16420 | -118.51699 | 3494 ft | 167 kts | 351° |
| 2026-05-04 01:10 | 34.17563 | -118.51831 | 3249 ft | 164 kts | 357° |
| 2026-05-04 01:11 | 34.18552 | -118.51853 | 3072 ft | 124 kts | 359° |
| 2026-05-04 01:11 | 34.19321 | -118.51828 | 3059 ft | 107 kts | 1° |
| 2026-05-04 01:11 | 34.20108 | -118.51723 | 2849 ft | 110 kts | 11° |
| 2026-05-04 01:11 | 34.20853 | -118.51551 | 2727 ft | 111 kts | 11° |
| 2026-05-04 01:12 | 34.21672 | -118.51300 | 2147 ft | 137 kts | 14° |
| 2026-05-04 01:12 | 34.22650 | -118.50945 | 1643 ft | 139 kts | 16° |
| 2026-05-04 01:12 | 34.23433 | -118.50764 | 1929 ft | 95 kts | 359° |
| 2026-05-04 01:12 | 34.24062 | -118.50786 | 1979 ft | 89 kts | 359° |
| 2026-05-04 01:13 | 34.24646 | -118.50792 | 2097 ft | 74 kts | 356° |
| 2026-05-04 01:13 | 34.25161 | -118.50742 | 2066 ft | 83 kts | 27° |
| 2026-05-04 01:13 | 34.25409 | -118.50107 | 2003 ft | 92 kts | 89° |
| 2026-05-04 01:13 | 34.25223 | -118.49324 | 1708 ft | 115 kts | 134° |
| 2026-05-04 01:14 | 34.24403 | -118.49121 | 1520 ft | 140 kts | 188° |
| 2026-05-04 01:14 | 34.23372 | -118.49289 | 1237 ft | 153 kts | 182° |
| 2026-05-04 01:14 | 34.22385 | -118.49183 | 1011 ft | 135 kts | 173° |
| 2026-05-04 01:14 | 34.21525 | -118.49088 | 817 ft | 112 kts | 176° |
| 2026-05-04 01:15 | 34.20843 | -118.49023 | 788 ft | 87 kts | 176° |
| 2026-05-04 01:15 | 34.20372 | -118.49086 | 766 ft | 44 kts | 216° |
| 2026-05-04 01:15 | 34.20270 | -118.49113 | 758 ft | 0 kts | 178° |
| 2026-05-04 01:16 | 34.20267 | -118.49114 | 759 ft | 6 kts | 204° |
| 2026-05-04 01:16 | 34.20254 | -118.49150 | 758 ft | 0 kts | 76° |